Time;durP1;ratioP1;P1;durP2;ratioP2;P2;SDS_P1;SDS_P2;PMS_P1;PMS_P2;Temp;Humidity;BMP_temperature;BMP_pressure;BME280_temperature;BME280_humidity;BME280_pressure;Samples;Min_cycle;Max_cycle;Signal;HPM_P1;HPM_P2
2022/08/18 00:00:16;;;;;;;14.35;10.68;;;;;;;17.39;100.00;100807.41;6103167;23;20021;-75
2022/08/18 00:02:46;;;;;;;10.75;9.55;;;;;;;17.53;100.00;100809.81;6071660;23;20021;-74
2022/08/18 00:05:27;;;;;;;11.55;10.23;;;;;;;17.39;100.00;100802.09;6106925;23;20021;-74
2022/08/18 00:07:56;;;;;;;11.43;10.05;;;;;;;17.28;100.00;100783.53;6084946;23;20095;-74
2022/08/18 00:10:24;;;;;;;10.52;9.52;;;;;;;17.20;100.00;100764.72;6092445;23;20039;-74
2022/08/18 00:12:50;;;;;;;12.77;9.43;;;;;;;16.84;100.00;100708.31;6053072;23;20244;-74
2022/08/18 00:15:24;;;;;;;13.68;11.30;;;;;;;17.18;100.00;100764.88;6087411;23;20022;-75
2022/08/18 00:17:51;;;;;;;14.43;10.88;;;;;;;17.49;100.00;100815.50;6077636;23;20024;-74
2022/08/18 00:20:22;;;;;;;13.35;10.32;;;;;;;17.31;100.00;100791.25;6086001;23;20101;-74
2022/08/18 00:22:50;;;;;;;13.52;10.75;;;;;;;17.43;100.00;100811.50;6069577;23;20008;-73
2022/08/18 00:25:19;;;;;;;14.30;11.55;;;;;;;17.44;100.00;100815.00;6075839;23;20760;-73
2022/08/18 00:27:46;;;;;;;16.38;12.75;;;;;;;16.93;100.00;100723.53;6073455;23;20010;-74
2022/08/18 00:30:17;;;;;;;18.67;14.07;;;;;;;17.43;100.00;100811.50;6098629;23;20022;-73
2022/08/18 00:32:47;;;;;;;19.58;13.38;;;;;;;17.30;100.00;100789.59;6084160;23;20404;-74
2022/08/18 00:35:19;;;;;;;17.10;13.88;;;;;;;17.36;100.00;100802.38;6105979;23;20878;-75
2022/08/18 00:37:47;;;;;;;19.42;14.32;;;;;;;17.31;100.00;100801.88;6107184;23;20036;-73
2022/08/18 00:40:19;;;;;;;15.40;13.07;;;;;;;17.28;100.00;100787.06;6087189;23;20327;-73
2022/08/18 00:42:48;;;;;;;17.73;13.30;;;;;;;17.24;100.00;100793.56;6079365;23;20010;-74
2022/08/18 00:45:19;;;;;;;13.95;11.73;;;;;;;16.87;100.00;100738.09;6100746;23;20496;-75
2022/08/18 00:47:45;;;;;;;12.93;11.13;;;;;;;16.79;100.00;100729.03;6065540;23;20466;-73
2022/08/18 00:50:17;;;;;;;16.17;13.68;;;;;;;17.15;100.00;100792.47;6067768;23;20017;-74
2022/08/18 00:52:57;;;;;;;19.92;13.45;;;;;;;17.13;100.00;100782.94;6068499;23;20018;-74
2022/08/18 00:55:24;;;;;;;13.35;11.95;;;;;;;16.54;100.00;100692.03;6109678;23;20016;-74
2022/08/18 00:58:00;;;;;;;15.98;11.25;;;;;;;16.88;100.00;100742.44;6080661;23;20050;-74
2022/08/18 01:00:26;;;;;;;13.98;12.52;;;;;;;16.42;100.00;100670.97;6103060;23;20353;-74
2022/08/18 01:02:58;;;;;;;15.15;11.25;;;;;;;15.91;100.00;100600.69;6051745;23;20635;-74
2022/08/18 01:05:32;;;;;;;17.40;12.93;;;;;;;17.01;100.00;100786.56;6104487;23;20052;-73
2022/08/18 01:07:59;;;;;;;14.40;12.02;;;;;;;16.99;100.00;100775.22;6056134;23;20100;-74
2022/08/18 01:10:25;;;;;;;15.65;12.13;;;;;;;16.94;100.00;100768.47;6117263;23;20033;-74
2022/08/18 01:12:54;;;;;;;16.30;12.73;;;;;;;16.64;100.00;100731.91;6070785;23;20295;-74
2022/08/18 01:15:23;;;;;;;17.30;12.43;;;;;;;16.54;100.00;100723.81;6101415;23;20427;-74
2022/08/18 01:23:40;;;;;;;15.10;12.48;;;;;;;15.66;100.00;100606.97;6067344;23;20022;-73
2022/08/18 01:26:08;;;;;;;17.17;11.60;;;;;;;16.72;100.00;100774.56;6101979;23;20345;-74
2022/08/18 01:28:37;;;;;;;15.02;11.75;;;;;;;16.79;100.00;100782.03;6086333;23;20045;-74
2022/08/18 01:31:06;;;;;;;19.40;14.10;;;;;;;16.73;100.00;100792.13;6109861;23;20047;-76
2022/08/18 01:33:42;;;;;;;19.45;13.50;;;;;;;16.70;100.00;100786.25;6078011;23;20439;-74
2022/08/18 01:36:15;;;;;;;18.58;14.75;;;;;;;16.67;100.00;100782.00;6091074;23;20025;-74
2022/08/18 01:38:44;;;;;;;20.92;12.55;;;;;;;16.66;100.00;100796.25;6053764;23;20045;-75
2022/08/18 01:41:10;;;;;;;21.02;14.48;;;;;;;16.63;100.00;100795.63;6084654;23;20081;-75
2022/08/18 01:44:00;;;;;;;19.80;14.68;;;;;;;16.11;100.00;100727.06;6062883;23;20017;-77
2022/08/18 01:46:30;;;;;;;16.02;14.15;;;;;;;16.54;100.00;100798.00;6081476;23;20006;-75
2022/08/18 01:48:59;;;;;;;15.48;12.13;;;;;;;15.06;100.00;100558.50;6077525;23;20041;-74
2022/08/18 01:51:31;;;;;;;15.32;13.02;;;;;;;16.18;100.00;100753.94;6106993;23;20030;-75
2022/08/18 01:54:07;;;;;;;14.90;13.35;;;;;;;16.43;100.00;100803.25;6045320;23;20486;-74
2022/08/18 01:56:35;;;;;;;19.30;12.43;;;;;;;16.40;100.00;100807.94;6109633;23;20450;-73
2022/08/18 01:59:02;;;;;;;17.30;13.57;;;;;;;16.40;100.00;100794.69;6073724;23;20036;-76
2022/08/18 02:01:28;;;;;;;19.95;13.60;;;;;;;15.95;100.00;100737.97;6110394;23;20510;-75
2022/08/18 02:04:05;;;;;;;21.90;15.38;;;;;;;16.19;100.00;100789.22;6075060;23;20435;-76
2022/08/18 02:06:52;;;;;;;17.58;13.00;;;;;;;16.03;100.00;100755.94;6076245;23;20010;-78
2022/08/18 02:09:19;;;;;;;14.43;12.48;;;;;;;16.40;100.00;100805.28;6056738;23;20025;-73
2022/08/18 02:11:50;;;;;;;20.50;15.55;;;;;;;16.50;100.00;100822.22;6107086;23;20022;-74
2022/08/18 02:14:22;;;;;;;24.10;14.20;;;;;;;16.22;100.00;100743.97;6078547;23;20022;-75
2022/08/18 02:16:58;;;;;;;19.30;14.00;;;;;;;16.63;100.00;100795.63;6100223;23;20021;-75
2022/08/18 02:19:34;;;;;;;22.38;14.35;;;;;;;16.67;100.00;100779.34;6066057;23;20046;-75
2022/08/18 02:22:01;;;;;;;20.63;14.65;;;;;;;16.33;100.00;100720.16;6089158;23;20163;-75
2022/08/18 02:24:28;;;;;;;18.13;14.55;;;;;;;16.43;100.00;100725.59;6066205;23;20025;-75
2022/08/18 02:26:55;;;;;;;25.27;15.07;;;;;;;16.43;100.00;100728.25;6101122;23;20010;-75
2022/08/18 02:29:22;;;;;;;22.92;14.63;;;;;;;16.19;100.00;100659.47;6076410;23;20026;-74
2022/08/18 02:31:49;;;;;;;20.05;13.73;;;;;;;16.70;100.00;100738.56;6110942;23;20027;-73
2022/08/18 02:34:16;;;;;;;23.40;14.88;;;;;;;16.65;100.00;100730.94;6075649;23;20173;-74
2022/08/18 02:36:43;;;;;;;28.08;17.42;;;;;;;17.01;100.00;100771.47;6110931;23;20021;-74
2022/08/18 02:39:10;;;;;;;20.73;15.68;;;;;;;16.54;100.00;100685.91;6050490;23;20040;-75
2022/08/18 02:41:36;;;;;;;17.98;13.55;;;;;;;17.13;100.00;100765.22;6110966;23;20022;-74
2022/08/18 02:44:06;;;;;;;24.95;16.17;;;;;;;17.16;100.00;100764.16;6070832;23;20474;-73
2022/08/18 02:46:32;;;;;;;22.65;14.23;;;;;;;17.20;100.00;100757.63;6101307;23;20069;-75
2022/08/18 02:48:59;;;;;;;25.45;16.73;;;;;;;16.93;100.00;100721.72;6082656;23;20084;-74
2022/08/18 02:51:26;;;;;;;20.58;14.20;;;;;;;16.05;100.00;100573.16;6105009;23;20177;-75
2022/08/18 02:53:53;;;;;;;23.20;16.20;;;;;;;17.13;100.00;100741.34;6076042;23;20028;-74
2022/08/18 02:56:34;;;;;;;22.60;15.88;;;;;;;17.26;100.00;100758.94;6112956;23;20082;-74
2022/08/18 02:59:10;;;;;;;17.52;14.45;;;;;;;17.30;100.00;100757.75;6069829;23;20032;-74
2022/08/18 03:01:40;;;;;;;23.48;15.68;;;;;;;17.32;100.00;100755.81;6108309;23;20002;-74
2022/08/18 03:04:09;;;;;;;25.73;16.65;;;;;;;17.27;100.00;100750.03;6066874;23;20498;-74
2022/08/18 03:06:37;;;;;;;23.55;15.38;;;;;;;17.32;100.00;100754.00;6085339;23;20037;-73
2022/08/18 03:09:05;;;;;;;23.77;14.35;;;;;;;17.35;100.00;100739.66;6113544;23;20084;-75
2022/08/18 03:11:31;;;;;;;20.13;14.00;;;;;;;16.84;100.00;100660.63;6081188;23;20028;-75
2022/08/18 03:13:59;;;;;;;20.33;14.40;;;;;;;17.26;100.00;100758.94;6083342;23;20024;-76
2022/08/18 03:16:26;;;;;;;21.00;14.70;;;;;;;17.25;100.00;100749.31;6096771;23;20033;-75
2022/08/18 03:18:53;;;;;;;23.00;14.68;;;;;;;17.25;100.00;100758.09;6078351;23;20256;-74
2022/08/18 03:21:24;;;;;;;21.33;14.05;;;;;;;17.08;100.00;100732.94;6102760;23;20029;-74
2022/08/18 03:23:53;;;;;;;20.17;14.30;;;;;;;16.55;100.00;100634.59;6077237;23;20038;-74
2022/08/18 03:26:28;;;;;;;17.50;14.63;;;;;;;16.55;100.00;100645.19;6114324;23;20466;-74
2022/08/18 03:28:59;;;;;;;25.23;16.75;;;;;;;17.29;100.00;100751.59;6084278;23;20159;-75
2022/08/18 03:31:30;;;;;;;22.88;15.48;;;;;;;17.30;100.00;100755.94;6068341;23;20181;-74
2022/08/18 03:34:00;;;;;;;27.38;15.55;;;;;;;17.07;100.00;100709.19;6093071;23;20100;-76
2022/08/18 03:36:30;;;;;;;23.05;15.00;;;;;;;17.04;100.00;100709.41;6077346;23;20073;-76
2022/08/18 03:39:00;;;;;;;22.83;14.73;;;;;;;17.01;100.00;100697.25;6115656;23;20085;-74
2022/08/18 03:41:30;;;;;;;18.75;14.38;;;;;;;17.11;100.00;100722.06;6074273;23;20428;-74
2022/08/18 03:44:16;;;;;;;24.33;15.55;;;;;;;17.27;100.00;100763.28;6099886;23;20075;-73
2022/08/18 03:46:44;;;;;;;18.50;13.45;;;;;;;17.30;100.00;100768.38;6086670;23;20248;-74
2022/08/18 03:49:12;;;;;;;25.33;15.98;;;;;;;16.20;100.00;100574.63;6101032;23;20370;-75
2022/08/18 03:51:48;;;;;;;22.85;15.75;;;;;;;17.32;100.00;100754.00;6068120;23;20030;-74
2022/08/18 03:54:16;;;;;;;23.65;14.25;;;;;;;17.35;100.00;100755.56;6109921;23;20270;-75
2022/08/18 03:56:45;;;;;;;24.38;15.93;;;;;;;16.80;100.00;100681.22;6048969;23;20516;-74
2022/08/18 03:59:16;;;;;;;22.90;16.05;;;;;;;17.39;100.00;100748.22;6116120;23;20403;-74
2022/08/18 04:01:44;;;;;;;21.25;16.13;;;;;;;17.28;100.00;100722.53;6074962;23;20143;-74
2022/08/18 04:04:14;;;;;;;26.35;17.05;;;;;;;17.41;100.00;100743.63;6097894;23;20026;-75
2022/08/18 04:06:44;;;;;;;28.05;15.32;;;;;;;17.27;100.00;100718.19;6079143;23;20089;-74
2022/08/18 04:09:13;;;;;;;23.00;16.42;;;;;;;17.46;100.00;100744.06;6103635;23;20100;-74
2022/08/18 04:11:42;;;;;;;23.40;15.23;;;;;;;17.46;100.00;100741.44;6086497;23;20037;-74
2022/08/18 04:14:13;;;;;;;22.23;17.05;;;;;;;17.49;100.00;100746.50;6107561;23;20458;-74
2022/08/18 04:16:40;;;;;;;25.27;15.32;;;;;;;16.76;100.00;100632.06;6050506;23;20045;-74
2022/08/18 04:19:07;;;;;;;22.63;15.63;;;;;;;17.33;100.00;100730.97;6112441;23;20529;-73
2022/08/18 04:21:38;;;;;;;20.15;13.93;;;;;;;17.32;100.00;100731.94;6065188;23;20451;-73
2022/08/18 04:24:06;;;;;;;22.20;14.73;;;;;;;16.64;100.00;100625.09;6093356;23;20021;-74
2022/08/18 04:26:39;;;;;;;20.58;13.35;;;;;;;17.51;100.00;100758.66;6095096;23;20013;-74
2022/08/18 04:29:09;;;;;;;21.70;14.65;;;;;;;17.19;100.00;100700.25;6110401;23;20020;-75
2022/08/18 04:31:36;;;;;;;17.95;13.52;;;;;;;17.03;100.00;100663.50;6063558;23;20064;-75
2022/08/18 04:34:02;;;;;;;18.75;14.52;;;;;;;17.20;100.00;100674.56;6100797;23;20030;-73
2022/08/18 04:36:34;;;;;;;14.35;11.88;;;;;;;17.63;100.00;100746.22;6090234;23;20088;-74
2022/08/18 04:39:04;;;;;;;21.45;12.73;;;;;;;17.66;100.00;100753.09;6107920;23;20209;-74
2022/08/18 04:41:30;;;;;;;20.13;14.32;;;;;;;16.78;100.00;100602.78;6065020;23;20025;-75
2022/08/18 04:43:59;;;;;;;25.80;13.13;;;;;;;17.70;100.00;100751.88;6077006;23;20038;-74
2022/08/18 04:46:27;;;;;;;22.00;12.98;;;;;;;17.77;100.00;100762.84;6082071;23;20022;-75
2022/08/18 04:49:00;;;;;;;19.63;13.45;;;;;;;17.45;100.00;100714.06;6106917;23;20050;-74
2022/08/18 04:51:28;;;;;;;15.77;11.50;;;;;;;17.82;100.00;100773.91;6068422;23;20100;-76
2022/08/18 04:54:15;;;;;;;18.55;13.45;;;;;;;17.62;100.00;100733.94;6113513;23;20027;-76
2022/08/18 04:56:43;;;;;;;22.42;14.57;;;;;;;17.52;100.00;100714.44;6083992;23;20038;-75
2022/08/18 04:59:12;;;;;;;20.40;13.20;;;;;;;17.83;100.00;100792.41;6109043;23;20462;-75
2022/08/18 05:01:44;;;;;;;16.13;11.93;;;;;;;17.42;100.00;100706.38;6078404;23;20522;-75
2022/08/18 05:04:13;;;;;;;25.65;14.63;;;;;;;17.14;100.00;100663.50;6103656;23;20017;-75
2022/08/18 05:06:42;;;;;;;15.43;12.23;;;;;;;17.82;100.00;100777.44;6077041;23;20171;-76
2022/08/18 05:09:11;;;;;;;22.55;15.75;;;;;;;17.40;100.00;100710.94;6078868;23;20524;-74
2022/08/18 05:11:43;;;;;;;16.02;11.60;;;;;;;17.80;100.00;100739.56;6084979;23;20017;-75
2022/08/18 05:14:10;;;;;;;20.30;14.30;;;;;;;17.63;100.00;100711.72;6106413;23;20032;-74
2022/08/18 05:16:37;;;;;;;19.80;12.82;;;;;;;17.78;100.00;100717.59;6086246;23;20105;-74
2022/08/18 05:19:20;;;;;;;22.10;14.35;;;;;;;18.08;100.00;100758.53;6072387;23;20259;-74
2022/08/18 05:21:49;;;;;;;14.45;11.45;;;;;;;18.11;100.00;100775.06;6071201;23;20042;-74
2022/08/18 05:24:17;;;;;;;20.85;14.00;;;;;;;16.94;100.00;100576.78;6120135;23;20294;-75
2022/08/18 05:26:47;;;;;;;20.15;13.35;;;;;;;17.61;100.00;100704.88;6099279;23;20736;-74
2022/08/18 05:29:15;;;;;;;17.73;14.23;;;;;;;18.08;100.00;100734.63;6119773;23;20017;-75
2022/08/18 05:31:46;;;;;;;17.65;12.10;;;;;;;18.37;100.00;100769.38;6071743;23;20028;-74
2022/08/18 05:34:12;;;;;;;24.55;15.38;;;;;;;18.55;100.00;100777.63;6107957;23;20056;-75
2022/08/18 05:36:48;;;;;;;24.63;13.85;;;;;;;18.63;100.00;100769.00;6092572;23;20087;-75
2022/08/18 05:39:20;;;;;;;17.98;13.60;;;;;;;18.67;100.00;100775.75;6110515;23;20434;-74
2022/08/18 05:42:00;;;;;;;22.33;14.93;;;;;;;18.54;100.00;100768.81;6084522;23;20037;-74
2022/08/18 05:44:31;;;;;;;18.75;13.98;;;;;;;17.79;100.00;100620.22;6103095;23;20018;-74
2022/08/18 05:47:10;;;;;;;17.70;11.98;;;;;;;17.87;100.00;100613.31;6079805;23;20097;-75
2022/08/18 05:49:38;;;;;;;22.58;13.73;;;;;;;18.71;100.00;100726.66;6107529;23;20262;-74
2022/08/18 05:52:11;;;;;;;18.92;12.25;;;;;;;18.78;100.00;100725.13;6078641;23;20525;-75
2022/08/18 05:57:41;;;;;;;17.15;11.38;;;;;;;19.17;100.00;100791.03;6081739;23;20018;-75
2022/08/18 06:00:11;;;;;;;22.02;14.95;;;;;;;18.52;100.00;100679.53;6101921;23;20026;-75
2022/08/18 06:02:44;;;;;;;17.73;12.48;;;;;;;19.21;100.00;100785.28;6076204;23;20019;-75
2022/08/18 06:05:18;;;;;;;20.52;13.25;;;;;;;19.15;100.00;100769.88;6105615;23;20022;-75
2022/08/18 06:08:02;;;;;;;18.23;13.50;;;;;;;18.86;100.00;100756.41;6048758;23;20352;-75
2022/08/18 06:10:30;;;;;;;19.23;13.40;;;;;;;18.80;100.00;100735.69;6109020;23;20442;-74
2022/08/18 06:12:58;;;;;;;17.17;11.60;;;;;;;18.88;100.00;100758.00;6047364;23;20041;-76
2022/08/18 06:15:49;;;;;;;16.70;12.13;;;;;;;18.89;100.00;100751.69;6075365;23;20018;-74
2022/08/18 06:18:53;;;;;;;16.83;12.95;;;;;;;19.31;100.00;100802.13;6089888;23;20002;-76
2022/08/18 06:21:31;;;;;;;21.38;13.13;;;;;;;19.26;100.00;100803.50;6101355;23;20014;-75
2022/08/18 06:24:19;;;;;;;14.77;12.38;;;;;;;19.30;100.00;100805.78;6097209;23;20127;-74
2022/08/18 06:26:59;;;;;;;18.23;12.65;;;;;;;19.32;100.00;100813.59;6122948;23;20235;-76
2022/08/18 06:30:04;;;;;;;15.48;11.20;;;;;;;19.33;100.00;100815.31;6105016;23;20037;-76
2022/08/18 06:33:11;;;;;;;21.85;13.10;;;;;;;19.06;100.00;100784.81;6094799;23;20015;-75
2022/08/18 06:35:48;;;;;;;23.80;12.85;;;;;;;19.29;100.00;100836.00;6110508;23;20021;-77
2022/08/18 06:41:08;;;;;;;18.88;13.13;;;;;;;19.14;100.00;100821.38;6101876;23;20290;-74
2022/08/18 06:43:59;;;;;;;22.42;11.80;;;;;;;19.23;100.00;100825.91;6098815;23;20018;-75
2022/08/18 06:46:43;;;;;;;16.45;11.27;;;;;;;19.28;100.00;100838.81;6108248;23;20009;-74
2022/08/18 06:49:35;;;;;;;16.83;12.07;;;;;;;19.36;100.00;100830.16;6076843;23;20366;-73
2022/08/18 06:52:34;;;;;;;19.48;13.70;;;;;;;19.29;100.00;100825.38;6091226;23;20092;-75
2022/08/18 06:55:15;;;;;;;20.48;13.73;;;;;;;19.44;100.00;100838.31;6088623;23;20039;-74
2022/08/18 06:57:56;;;;;;;23.65;13.35;;;;;;;18.57;100.00;100687.97;6112662;23;20529;-74
2022/08/18 07:00:25;;;;;;;15.70;11.73;;;;;;;19.48;100.00;100835.28;6055252;23;20507;-74
2022/08/18 07:03:03;;;;;;;20.38;12.70;;;;;;;19.20;100.00;100796.06;6105256;23;20017;-74
2022/08/18 07:05:34;;;;;;;19.15;13.23;;;;;;;19.31;100.00;100827.91;6079173;23;20084;-74
2022/08/18 07:08:19;;;;;;;23.20;13.45;;;;;;;19.35;100.00;100833.81;6102240;23;20021;-74
2022/08/18 07:10:48;;;;;;;22.13;13.48;;;;;;;19.11;100.00;100792.38;6063143;23;20521;-74
2022/08/18 07:13:19;;;;;;;24.27;13.82;;;;;;;18.31;100.00;100664.47;6100017;23;20481;-74
2022/08/18 07:15:47;;;;;;;13.55;9.75;;;;;;;19.23;100.00;100825.91;6108207;23;20026;-74
2022/08/18 07:18:22;;;;;;;19.73;13.90;;;;;;;19.19;100.00;100832.47;6084939;23;20021;-74
2022/08/18 07:20:55;;;;;;;19.35;12.90;;;;;;;19.30;100.00;100836.84;6089269;23;20032;-74
2022/08/18 07:23:26;;;;;;;17.23;12.43;;;;;;;18.96;100.00;100786.56;6104956;23;20387;-75
2022/08/18 07:26:22;;;;;;;12.13;10.50;;;;;;;19.31;100.00;100828.75;6076804;23;20328;-74
2022/08/18 07:28:50;;;;;;;21.17;12.48;;;;;;;19.32;100.00;100824.25;6086492;23;20489;-73
2022/08/18 07:31:47;;;;;;;19.00;12.70;;;;;;;19.31;100.00;100817.25;6063721;23;20179;-74
2022/08/18 07:34:24;;;;;;;19.88;13.10;;;;;;;19.22;100.00;100812.72;6082263;23;20025;-74
2022/08/18 07:37:06;;;;;;;20.08;12.45;;;;;;;18.70;100.00;100722.31;6088879;23;20308;-74
2022/08/18 07:39:56;;;;;;;15.95;12.65;;;;;;;19.04;100.00;100768.16;6113187;23;20092;-76
2022/08/18 07:42:39;;;;;;;20.63;12.90;;;;;;;19.34;100.00;100806.34;6001179;23;20798;-75
2022/08/18 07:45:34;;;;;;;18.67;12.57;;;;;;;19.00;100.00;100736.59;6094563;23;20462;-74
2022/08/18 07:48:08;;;;;;;18.58;12.35;;;;;;;19.56;100.00;100809.78;6069790;23;20130;-74
2022/08/18 07:51:06;;;;;;;19.67;12.48;;;;;;;19.34;100.00;100763.75;6061678;23;20053;-75
2022/08/18 07:53:56;;;;;;;17.08;11.57;;;;;;;19.71;100.00;100809.28;6101797;23;20013;-74
2022/08/18 07:56:38;;;;;;;19.88;12.75;;;;;;;19.73;100.00;100803.84;6066859;23;20068;-75
2022/08/18 07:59:28;;;;;;;20.75;13.30;;;;;;;18.74;100.00;100642.16;6118557;23;20028;-74
2022/08/18 08:02:12;;;;;;;15.52;10.77;;;;;;;19.83;100.00;100833.16;6082055;23;20088;-74
2022/08/18 08:04:57;;;;;;;18.13;13.05;;;;;;;19.86;100.00;100831.03;6104784;23;20698;-76
2022/08/18 08:07:30;;;;;;;18.33;12.35;;;;;;;19.18;100.00;100702.22;6104990;23;20135;-73
2022/08/18 08:10:21;;;;;;;19.00;12.27;;;;;;;20.05;100.00;100832.91;6067070;23;20033;-74
2022/08/18 08:13:36;;;;;;;19.13;12.50;;;;;;;20.23;100.00;100834.91;6085197;23;20054;-74
2022/08/18 08:16:43;;;;;;;21.23;11.63;;;;;;;20.06;100.00;100788.44;6082076;23;20021;-74
2022/08/18 08:19:42;;;;;;;20.25;13.50;;;;;;;20.46;100.00;100846.94;6101133;23;20301;-76
2022/08/18 08:22:48;;;;;;;17.75;13.88;;;;;;;20.31;100.00;100811.88;6086838;23;20037;-74
2022/08/18 08:25:24;;;;;;;15.10;12.23;;;;;;;20.34;100.00;100789.41;6076672;23;20532;-74
2022/08/18 08:28:24;;;;;;;15.02;11.52;;;;;;;20.77;100.00;100841.50;6067055;23;20029;-75
2022/08/18 08:31:15;;;;;;;15.95;11.43;;;;;;;20.61;100.00;100793.25;6105459;23;20101;-75
2022/08/18 08:34:07;;;;;;;14.00;11.65;;;;;;;21.01;100.00;100846.34;6076781;23;20033;-75
2022/08/18 08:36:38;;;;;;;15.82;11.88;;;;;;;21.17;100.00;100844.88;6092157;23;20085;-75
2022/08/18 08:39:36;;;;;;;16.02;12.32;;;;;;;21.22;100.00;100846.13;6081874;23;20017;-74
2022/08/18 08:42:24;;;;;;;20.08;12.48;;;;;;;21.40;100.00;100854.22;6043381;23;20029;-74
2022/08/18 08:45:06;;;;;;;16.25;10.70;;;;;;;21.29;100.00;100806.38;6097005;23;20279;-76
2022/08/18 08:47:54;;;;;;;16.60;11.85;;;;;;;21.17;100.00;100810.19;6086324;23;20533;-76
2022/08/18 08:50:35;;;;;;;15.95;11.10;;;;;;;21.39;100.00;100830.31;6094835;23;20651;-75
2022/08/18 08:53:11;;;;;;;13.60;12.05;;;;;;;21.43;100.00;100858.44;6097946;23;20029;-74
2022/08/18 08:55:45;;;;;;;16.25;11.75;;;;;;;21.09;100.00;100803.78;6070396;23;20097;-75
2022/08/18 08:58:29;;;;;;;14.95;12.10;;;;;;;21.60;100.00;100865.69;6078576;23;20064;-75
2022/08/18 09:00:57;;;;;;;13.10;11.10;;;;;;;21.22;100.00;100790.09;6101964;23;20025;-75
2022/08/18 09:03:32;;;;;;;14.00;10.65;;;;;;;21.61;100.00;100858.50;6109696;23;20021;-75
2022/08/18 09:05:58;;;;;;;13.57;11.27;;;;;;;21.59;99.49;100864.03;6060617;23;20025;-74
2022/08/18 09:09:02;;;;;;;12.20;9.00;;;;;;;21.57;100.00;100847.31;6079585;23;20462;-74
2022/08/18 09:11:39;;;;;;;17.15;11.25;;;;;;;21.58;99.81;100845.47;6101356;23;20608;-74
2022/08/18 09:14:41;;;;;;;12.93;11.52;;;;;;;21.66;100.00;100849.06;6101074;23;20193;-74
2022/08/18 09:17:13;;;;;;;14.68;12.82;;;;;;;21.75;99.43;100859.84;6071668;23;20026;-75
2022/08/18 09:19:54;;;;;;;;;;;;;;;21.67;99.33;100844.59;6089811;23;20043;-75
2022/08/18 09:22:41;;;;;;;15.77;12.50;;;;;;;21.68;99.47;100843.59;6066045;23;19976;-74
2022/08/18 09:25:43;;;;;;;13.82;11.88;;;;;;;21.62;100.00;100838.84;6097956;23;20450;-76
2022/08/18 09:28:11;;;;;;;15.57;12.10;;;;;;;21.58;99.51;100832.13;6047815;23;20531;-74
2022/08/18 09:31:04;;;;;;;12.18;10.40;;;;;;;21.72;100.00;100852.97;6047341;23;20471;-74
2022/08/18 09:33:37;;;;;;;14.57;10.77;;;;;;;21.03;98.79;100729.66;6019235;23;20034;-74
2022/08/18 09:36:06;;;;;;;15.52;11.55;;;;;;;22.07;98.22;100843.34;6062487;23;20038;-74
2022/08/18 09:41:44;;;;;;;12.40;10.70;;;;;;;22.82;91.33;100784.16;6079132;23;20021;-74
2022/08/18 09:44:40;;;;;;;13.35;11.20;;;;;;;23.70;87.02;100834.81;6003791;23;20444;-74
2022/08/18 09:47:08;;;;;;;13.32;11.88;;;;;;;23.61;83.64;100779.50;6069102;23;20357;-74
2022/08/18 09:49:52;;;;;;;14.00;10.70;;;;;;;23.94;81.78;100801.91;6057643;23;20178;-74
2022/08/18 09:52:20;;;;;;;11.07;9.88;;;;;;;24.24;81.55;100823.72;6069332;23;20025;-74
2022/08/18 09:55:16;;;;;;;11.88;10.27;;;;;;;22.52;80.74;100577.69;6045479;23;20026;-73
2022/08/18 09:57:45;;;;;;;10.95;9.77;;;;;;;23.80;81.31;100792.66;6067391;23;20006;-75
2022/08/18 10:00:25;;;;;;;11.20;10.13;;;;;;;23.87;80.99;100779.44;6050455;23;20389;-74
2022/08/18 10:02:53;;;;;;;9.13;8.38;;;;;;;24.17;78.58;100828.91;6052866;23;20098;-76
2022/08/18 10:05:26;;;;;;;10.35;8.13;;;;;;;24.38;79.26;100839.16;6041190;23;20093;-73
2022/08/18 10:08:16;;;;;;;8.48;7.78;;;;;;;23.48;77.51;100676.34;6054226;23;20130;-75
2022/08/18 10:11:17;;;;;;;8.95;8.05;;;;;;;24.55;76.46;100839.19;6041099;23;20030;-74
2022/08/18 10:13:57;;;;;;;9.63;8.70;;;;;;;24.25;76.52;100836.13;6044111;23;20041;-75
2022/08/18 10:16:47;;;;;;;8.50;7.80;;;;;;;24.51;77.18;100844.03;6052761;23;20073;-75
2022/08/18 10:20:18;;;;;;;9.75;8.88;;;;;;;24.20;75.35;100761.53;6074461;23;20053;-75
2022/08/18 10:22:55;;;;;;;8.70;8.00;;;;;;;24.53;74.72;100811.69;6044245;23;20076;-75
2022/08/18 10:25:53;;;;;;;8.10;7.40;;;;;;;24.84;74.26;100836.00;6077814;23;20013;-74
2022/08/18 10:28:52;;;;;;;8.55;7.85;;;;;;;24.75;74.23;100827.09;6021242;23;20132;-74
2022/08/18 10:31:19;;;;;;;8.45;7.75;;;;;;;24.51;72.65;100786.88;6069520;23;20025;-74
2022/08/18 10:34:04;;;;;;;8.40;7.75;;;;;;;24.68;72.15;100785.84;6046890;23;20617;-74
2022/08/18 10:37:02;;;;;;;8.30;7.53;;;;;;;24.38;71.75;100763.22;6078061;23;20120;-75
2022/08/18 10:39:59;;;;;;;8.68;7.97;;;;;;;24.88;70.24;100821.22;6076101;23;20292;-76
2022/08/18 10:43:07;;;;;;;8.50;7.90;;;;;;;24.80;70.87;100818.56;6081576;23;20037;-76
2022/08/18 10:45:53;;;;;;;9.25;8.45;;;;;;;24.27;71.08;100847.53;6032522;23;20293;-75
2022/08/18 10:48:40;;;;;;;8.25;7.57;;;;;;;24.84;70.35;100818.03;6055797;23;20010;-76
2022/08/18 10:51:10;;;;;;;9.30;8.60;;;;;;;25.28;69.42;100816.78;6067548;23;20402;-75
2022/08/18 10:53:49;;;;;;;11.35;8.50;;;;;;;24.52;71.62;100821.59;6062072;23;20017;-75
2022/08/18 10:56:30;;;;;;;8.90;8.10;;;;;;;24.77;70.63;100792.03;6076044;23;20598;-75
2022/08/18 10:59:11;;;;;;;8.07;7.43;;;;;;;25.30;69.00;100814.75;6059214;23;20083;-75
2022/08/18 11:02:06;;;;;;;8.35;7.55;;;;;;;25.57;67.35;100804.56;6051066;23;20346;-75
2022/08/18 11:04:42;;;;;;;8.65;8.02;;;;;;;25.15;66.93;100731.31;6069831;23;20447;-74
2022/08/18 11:07:22;;;;;;;10.20;9.20;;;;;;;25.12;67.62;100742.44;6051329;23;20031;-74
2022/08/18 11:09:51;;;;;;;8.80;7.85;;;;;;;24.98;67.26;100800.38;6051098;23;20030;-74
2022/08/18 11:12:59;;;;;;;8.70;8.00;;;;;;;25.24;68.80;100807.38;6078422;23;20344;-74
2022/08/18 11:15:59;;;;;;;7.82;7.32;;;;;;;25.20;66.57;100752.31;6052457;23;20076;-75
2022/08/18 11:18:40;;;;;;;6.90;6.50;;;;;;;25.76;66.56;100796.06;6073115;23;20033;-74
2022/08/18 11:21:30;;;;;;;9.23;8.52;;;;;;;26.17;64.67;100806.56;6049398;23;20389;-74
2022/08/18 11:24:23;;;;;;;8.90;8.20;;;;;;;26.10;62.94;100784.09;6082442;23;20085;-75
2022/08/18 11:27:23;;;;;;;9.45;8.82;;;;;;;26.05;61.89;100790.00;6071637;23;20029;-75
2022/08/18 11:29:50;;;;;;;9.88;8.88;;;;;;;25.58;62.76;100808.91;6106436;23;20048;-74
2022/08/18 11:32:29;;;;;;;9.20;8.50;;;;;;;25.20;65.03;100803.34;6115380;23;20048;-74
2022/08/18 11:34:57;;;;;;;8.55;7.75;;;;;;;25.75;64.77;100805.13;6081276;23;20030;-75
2022/08/18 11:37:44;;;;;;;8.57;7.80;;;;;;;25.57;65.12;100797.31;6105515;23;20005;-75
2022/08/18 11:40:19;;;;;;;7.80;7.20;;;;;;;25.85;64.89;100794.97;6089245;23;20087;-74
2022/08/18 11:43:08;;;;;;;8.77;8.07;;;;;;;26.40;63.67;100778.78;6088349;23;20026;-75
2022/08/18 11:45:42;;;;;;;7.70;7.10;;;;;;;27.06;60.64;100785.22;6102132;23;20077;-75
2022/08/18 11:48:15;;;;;;;;;;;;;;;27.06;58.82;100787.91;6092325;23;20026;-73
2022/08/18 11:50:55;;;;;;;8.32;7.72;;;;;;;26.82;59.93;100778.25;6070393;23;19914;-76
2022/08/18 11:53:42;;;;;;;8.40;7.80;;;;;;;26.96;59.57;100773.91;6095575;23;20325;-75
2022/08/18 11:56:12;;;;;;;10.98;10.13;;;;;;;27.06;57.48;100773.59;6092969;23;20037;-73
2022/08/18 11:58:51;;;;;;;9.18;8.48;;;;;;;26.98;57.35;100782.63;6102403;23;20021;-75
2022/08/18 12:01:44;;;;;;;9.43;8.63;;;;;;;26.41;59.62;100788.53;6068842;23;20014;-73
2022/08/18 12:04:37;;;;;;;9.55;8.85;;;;;;;26.09;62.78;100789.66;6074187;23;20087;-74